Aviation Digital Data Service (ADDS)

Output produced by METARs form (0044 UTC 20 April 2019)
found at http://www.aviationweather.gov/metar/data/
 
Forecast for: LTCI (VAN , TR)
Text: TAF LTCI 192240Z 2000/2009 VRB02KT 8000 -RASN BKN030 BKN070
Forecast period: 0000 to 0900 UTC 20 April 2019
Forecast type: FROM: standard forecast or significant change
Winds: variable direction winds at 2 MPH (2 knots; 1.0 m/s)
Visibility: 5 miles (8 km)
Ceiling: 3000 feet AGL
Clouds: broken clouds at 3000 feet AGL
broken clouds at 7000 feet AGL
Weather: -RA -SN  (light rain, light snow)